Time;durP1;ratioP1;P1;durP2;ratioP2;P2;SDS_P1;SDS_P2;PMS_P1;PMS_P2;Temp;Humidity;BMP_temperature;BMP_pressure;BME280_temperature;BME280_humidity;BME280_pressure;Samples;Min_cycle;Max_cycle;Signal;HPM_P1;HPM_P2
2022/08/21 00:02:17;;;;;;;;;;;;;;;29.45;62.77;100597.03;5083282;28;66718;-29
2022/08/21 00:04:50;;;;;;;;;;;;;;;29.48;68.62;100607.41;5081547;27;70802;-30
2022/08/21 00:07:27;;;;;;;;;;;;;;;29.50;71.18;100604.47;5082217;27;67659;-30
2022/08/21 00:09:59;;;;;;;;;;;;;;;29.50;72.67;100607.97;5083416;28;70001;-30
2022/08/21 00:12:31;;;;;;;;;;;;;;;29.53;73.83;100610.28;5082271;28;66938;-31
2022/08/21 00:15:05;;;;;;;;;;;;;;;29.51;75.45;100622.34;5083149;28;70929;-30
2022/08/21 00:17:37;;;;;;;;;;;;;;;29.49;75.92;100614.44;5082703;28;66225;-31
2022/08/21 00:20:10;;;;;;;;;;;;;;;29.48;76.77;100633.59;5082618;27;70791;-31
2022/08/21 00:22:42;;;;;;;;;;;;;;;29.48;76.80;100625.50;5082508;28;66578;-30
2022/08/21 00:25:15;;;;;;;;;;;;;;;29.49;76.79;100646.06;5082785;27;70019;-30
2022/08/21 00:27:50;;;;;;;;;;;;;;;29.49;76.91;100651.47;5083006;27;66374;-30
2022/08/21 00:30:23;;;;;;;;;;;;;;;29.49;77.35;100662.28;5082405;28;70798;-30
2022/08/21 00:32:55;;;;;;;;;;;;;;;29.49;76.90;100671.19;5082029;28;66683;-30
2022/08/21 00:35:32;;;;;;;;;;;;;;;29.53;77.50;100666.19;5063404;28;70617;-30
2022/08/21 00:38:05;;;;;;;;;;;;;;;29.55;77.18;100672.22;5082227;28;66923;-31
2022/08/21 00:40:40;;;;;;;;;;;;;;;29.60;77.22;100670.50;5081816;28;69709;-31
2022/08/21 00:43:14;;;;;;;;;;;;;;;29.65;76.72;100669.91;5079992;28;66336;-31
2022/08/21 00:45:47;;;;;;;;;;;;;;;29.69;76.81;100667.59;5080347;28;70803;-31
2022/08/21 00:48:19;;;;;;;;;;;;;;;29.73;76.34;100661.53;5082461;28;67103;-34
2022/08/21 00:50:57;;;;;;;;;;;;;;;29.75;76.13;100672.13;5064846;28;70108;-34
2022/08/21 00:53:30;;;;;;;;;;;;;;;29.79;76.47;100660.66;5081070;28;66978;-33
2022/08/21 00:56:04;;;;;;;;;;;;;;;29.81;76.61;100668.53;5081662;28;71386;-34
2022/08/21 00:58:41;;;;;;;;;;;;;;;29.84;76.83;100682.47;5061786;28;67123;-34
2022/08/21 01:01:14;;;;;;;;;;;;;;;29.87;77.17;100680.38;5046604;28;70348;-32
2022/08/21 01:03:49;;;;;;;;;;;;;;;29.89;77.01;100684.50;5056676;28;66180;-31
2022/08/21 01:06:21;;;;;;;;;;;;;;;29.90;76.47;100690.75;5081018;28;70281;-32
2022/08/21 01:08:53;;;;;;;;;;;;;;;29.92;76.49;100697.63;5062111;28;66829;-32
2022/08/21 01:11:26;;;;;;;;;;;;;;;29.93;76.95;100695.72;5079001;28;70773;-32
2022/08/21 01:13:58;;;;;;;;;;;;;;;29.95;77.66;100693.63;5080839;28;67386;-32
2022/08/21 01:16:30;;;;;;;;;;;;;;;29.97;77.40;100696.94;5080406;28;70241;-32
2022/08/21 01:19:02;;;;;;;;;;;;;;;30.00;76.54;100700.03;5080830;27;67244;-32
2022/08/21 01:21:35;;;;;;;;;;;;;;;29.96;76.86;100695.28;5082361;28;70170;-32
2022/08/21 01:24:07;;;;;;;;;;;;;;;29.92;77.67;100702.16;5079016;28;65975;-33
2022/08/21 01:26:40;;;;;;;;;;;;;;;29.90;77.78;100698.88;5081762;28;70855;-31
2022/08/21 01:29:12;;;;;;;;;;;;;;;29.94;78.10;100710.91;5081328;28;66298;-30
2022/08/21 01:31:44;;;;;;;;;;;;;;;30.03;77.45;100720.41;5080560;27;70971;-31
2022/08/21 01:34:17;;;;;;;;;;;;;;;30.04;77.99;100717.50;5081573;28;66386;-31
2022/08/21 01:36:50;;;;;;;;;;;;;;;30.09;77.81;100719.56;5079764;28;70975;-33
2022/08/21 01:39:22;;;;;;;;;;;;;;;30.08;77.84;100709.75;5072796;28;67480;-30
2022/08/21 01:41:54;;;;;;;;;;;;;;;30.14;77.87;100714.28;5079493;28;70672;-32
2022/08/21 01:44:27;;;;;;;;;;;;;;;30.17;78.35;100710.31;5061550;28;66343;-32
2022/08/21 01:47:01;;;;;;;;;;;;;;;30.16;78.01;100705.97;5079592;28;70170;-32
2022/08/21 01:49:34;;;;;;;;;;;;;;;30.31;77.68;100711.06;5080302;28;66436;-32
2022/08/21 01:52:07;;;;;;;;;;;;;;;30.26;77.38;100720.69;5079358;28;69308;-32
2022/08/21 01:54:39;;;;;;;;;;;;;;;30.32;77.35;100724.41;5079251;28;66400;-33
2022/08/21 01:57:12;;;;;;;;;;;;;;;30.37;77.94;100727.28;5058979;28;69920;-38
2022/08/21 01:59:44;;;;;;;;;;;;;;;30.38;77.22;100725.38;5079925;28;67363;-31
2022/08/21 02:02:16;;;;;;;;;;;;;;;30.38;77.32;100726.22;5080410;28;71337;-30
2022/08/21 02:04:48;;;;;;;;;;;;;;;30.42;76.80;100726.59;5079927;28;67371;-30
2022/08/21 02:07:21;;;;;;;;;;;;;;;30.40;77.01;100726.00;5081378;28;70832;-34
2022/08/21 02:09:53;;;;;;;;;;;;;;;30.41;77.46;100722.25;5081134;27;67098;-31
2022/08/21 02:12:25;;;;;;;;;;;;;;;30.38;77.22;100719.97;5079715;27;71009;-31
2022/08/21 02:14:58;;;;;;;;;;;;;;;30.37;77.57;100724.56;5080863;28;66984;-31
2022/08/21 02:17:50;;;;;;;;;;;;;;;30.42;77.12;100735.56;5081036;28;70893;-32
2022/08/21 02:20:27;;;;;;;;;;;;;;;30.45;77.43;100731.56;5073059;28;66547;-36
2022/08/21 02:23:00;;;;;;;;;;;;;;;30.47;77.48;100735.72;5080218;27;69979;-32
2022/08/21 02:25:32;;;;;;;;;;;;;;;30.51;77.13;100736.13;5080319;28;66758;-32
2022/08/21 02:28:14;;;;;;;;;;;;;;;30.55;77.15;100737.31;5072102;28;70875;-33
2022/08/21 02:30:47;;;;;;;;;;;;;;;30.60;76.96;100731.25;5080277;27;67272;-34
2022/08/21 02:33:19;;;;;;;;;;;;;;;30.59;76.72;100727.72;5080649;28;69644;-31
2022/08/21 02:35:52;;;;;;;;;;;;;;;30.61;76.57;100725.59;5076882;28;66289;-35
2022/08/21 02:38:27;;;;;;;;;;;;;;;30.65;76.95;100723.28;5044225;28;70208;-33
2022/08/21 02:40:59;;;;;;;;;;;;;;;30.68;76.13;100720.97;5078323;28;67694;-34
2022/08/21 02:43:31;;;;;;;;;;;;;;;30.73;75.84;100720.31;5076500;28;70539;-33
2022/08/21 02:46:04;;;;;;;;;;;;;;;30.76;76.00;100716.28;5080341;28;66790;-34
2022/08/21 02:48:37;;;;;;;;;;;;;;;30.80;75.78;100715.66;5079522;28;71009;-34
2022/08/21 02:51:11;;;;;;;;;;;;;;;30.86;75.80;100716.63;5080555;28;66599;-38
2022/08/21 02:53:44;;;;;;;;;;;;;;;30.89;75.27;100710.78;5061908;28;70682;-32
2022/08/21 02:56:18;;;;;;;;;;;;;;;30.92;75.16;100711.19;5058989;28;66191;-33
2022/08/21 02:58:52;;;;;;;;;;;;;;;30.94;75.06;100698.22;5076652;28;71159;-33
2022/08/21 03:01:25;;;;;;;;;;;;;;;30.98;75.05;100706.75;5078883;28;67670;-32
2022/08/21 03:03:57;;;;;;;;;;;;;;;31.02;74.60;100698.97;5078259;28;71261;-32
2022/08/21 03:06:29;;;;;;;;;;;;;;;31.00;75.29;100696.47;5080242;28;66720;-32
2022/08/21 03:09:01;;;;;;;;;;;;;;;31.02;74.86;100694.38;5077986;28;70423;-32
2022/08/21 03:11:34;;;;;;;;;;;;;;;31.02;75.35;100693.56;5078206;27;66517;-33
2022/08/21 03:14:06;;;;;;;;;;;;;;;31.02;75.21;100694.38;5077742;28;70046;-33
2022/08/21 03:16:38;;;;;;;;;;;;;;;31.02;75.17;100691.69;5075103;28;67349;-33
2022/08/21 03:19:11;;;;;;;;;;;;;;;31.03;75.22;100695.22;5078239;28;70613;-33
2022/08/21 03:21:43;;;;;;;;;;;;;;;31.02;75.15;100707.94;5061508;27;67215;-33
2022/08/21 03:24:15;;;;;;;;;;;;;;;31.02;75.22;100710.63;5081891;28;71562;-33
2022/08/21 03:26:50;;;;;;;;;;;;;;;31.07;75.09;100704.56;5082979;28;67308;-33
2022/08/21 03:29:22;;;;;;;;;;;;;;;31.03;75.66;100693.31;5080888;28;69960;-32
2022/08/21 03:31:55;;;;;;;;;;;;;;;31.06;75.03;100692.88;5080017;28;67146;-36
2022/08/21 03:34:27;;;;;;;;;;;;;;;31.06;75.39;100694.75;5080925;28;70161;-33
2022/08/21 03:36:59;;;;;;;;;;;;;;;31.08;75.52;100692.66;5078635;28;65964;-32
2022/08/21 03:39:34;;;;;;;;;;;;;;;31.07;75.49;100689.13;5064886;28;69956;-33
2022/08/21 03:42:07;;;;;;;;;;;;;;;31.07;75.42;100681.00;5047485;28;66833;-36
2022/08/21 03:44:39;;;;;;;;;;;;;;;31.09;75.09;100668.06;5072112;28;69786;-35
2022/08/21 03:47:12;;;;;;;;;;;;;;;31.13;75.34;100673.84;5063902;28;66989;-33
2022/08/21 03:49:44;;;;;;;;;;;;;;;31.13;74.98;100671.13;5079518;28;69912;-33
2022/08/21 03:52:17;;;;;;;;;;;;;;;31.16;74.71;100663.38;5063899;28;66583;-33
2022/08/21 03:54:50;;;;;;;;;;;;;;;31.19;75.06;100655.84;5067626;28;70414;-33
2022/08/21 03:57:22;;;;;;;;;;;;;;;31.18;74.68;100652.31;5080194;28;67385;-35
2022/08/21 03:59:54;;;;;;;;;;;;;;;31.20;74.66;100641.22;5064677;28;70791;-33
2022/08/21 04:02:27;;;;;;;;;;;;;;;31.22;75.15;100637.25;5082925;28;66938;-35
2022/08/21 04:04:59;;;;;;;;;;;;;;;31.25;75.55;100635.97;5066660;28;71122;-34
2022/08/21 04:07:31;;;;;;;;;;;;;;;31.22;76.06;100629.09;5082611;28;66977;-35
2022/08/21 04:10:04;;;;;;;;;;;;;;;31.24;75.75;100635.13;5063787;28;69501;-35
2022/08/21 04:12:36;;;;;;;;;;;;;;;31.24;76.31;100637.03;5079070;28;66361;-33
2022/08/21 04:15:08;;;;;;;;;;;;;;;31.25;76.84;100636.78;5081579;28;70725;-35
2022/08/21 04:17:41;;;;;;;;;;;;;;;31.29;76.76;100626.34;5057247;28;67108;-36
2022/08/21 04:20:13;;;;;;;;;;;;;;;31.31;77.51;100632.31;5079299;28;71258;-33
2022/08/21 04:22:45;;;;;;;;;;;;;;;31.37;77.14;100626.00;5080181;28;66169;-34
2022/08/21 04:25:18;;;;;;;;;;;;;;;31.37;77.88;100631.44;5082206;28;69751;-34
2022/08/21 04:27:51;;;;;;;;;;;;;;;31.36;77.38;100632.50;5046691;28;67238;-35
2022/08/21 04:30:24;;;;;;;;;;;;;;;31.38;77.74;100627.69;5080286;28;69963;-34
2022/08/21 04:32:58;;;;;;;;;;;;;;;31.36;78.25;100633.31;5076696;27;66438;-32
2022/08/21 04:35:31;;;;;;;;;;;;;;;31.35;77.74;100615.38;5079603;28;70040;-33
2022/08/21 04:38:03;;;;;;;;;;;;;;;31.35;77.07;100622.69;5079573;28;66551;-34
2022/08/21 04:40:36;;;;;;;;;;;;;;;31.36;76.63;100610.81;5063478;28;70167;-32
2022/08/21 04:43:10;;;;;;;;;;;;;;;31.36;76.16;100608.09;5037912;28;64811;-34
2022/08/21 04:45:44;;;;;;;;;;;;;;;31.33;76.86;100597.69;5062188;28;70889;-35
2022/08/21 04:48:18;;;;;;;;;;;;;;;31.32;76.58;100590.63;5063758;28;66113;-34
2022/08/21 04:50:54;;;;;;;;;;;;;;;31.32;76.11;100598.78;5079583;27;71168;-34
2022/08/21 04:53:26;;;;;;;;;;;;;;;31.34;75.85;100585.78;5081341;28;65714;-34
2022/08/21 04:56:04;;;;;;;;;;;;;;;31.33;75.44;100576.84;5062549;28;70306;-36
2022/08/21 04:58:38;;;;;;;;;;;;;;;31.32;76.13;100574.38;5063352;28;67386;-33
2022/08/21 05:01:12;;;;;;;;;;;;;;;31.38;75.06;100574.31;5081267;28;71028;-34
2022/08/21 05:03:46;;;;;;;;;;;;;;;31.53;74.34;100565.72;5081341;27;68405;-34
2022/08/21 05:06:18;;;;;;;;;;;;;;;31.65;73.70;100567.63;5082065;28;70155;-34
2022/08/21 05:08:53;;;;;;;;;;;;;;;31.75;72.90;100567.91;5079483;28;67207;-33
2022/08/21 05:11:32;;;;;;;;;;;;;;;31.82;72.78;100579.47;5081029;28;70210;-34
2022/08/21 05:14:05;;;;;;;;;;;;;;;31.89;72.12;100577.47;5060068;28;67332;-33
2022/08/21 05:16:37;;;;;;;;;;;;;;;31.96;71.75;100569.25;5082128;27;70998;-34
2022/08/21 05:19:10;;;;;;;;;;;;;;;32.00;71.63;100573.97;5064266;28;67759;-34
2022/08/21 05:21:44;;;;;;;;;;;;;;;32.04;71.37;100567.00;5079949;28;70824;-34
2022/08/21 05:24:17;;;;;;;;;;;;;;;32.10;70.80;100564.44;5080264;28;66698;-34
2022/08/21 05:26:49;;;;;;;;;;;;;;;32.13;70.29;100548.50;5081083;28;70482;-35
2022/08/21 05:29:22;;;;;;;;;;;;;;;32.19;70.38;100541.28;5079853;28;66755;-34
2022/08/21 05:31:54;;;;;;;;;;;;;;;32.23;69.71;100539.72;5080575;27;70700;-35
2022/08/21 05:34:27;;;;;;;;;;;;;;;32.10;69.40;100518.31;5079479;28;67482;-34
2022/08/21 05:37:00;;;;;;;;;;;;;;;32.26;69.46;100526.53;5079095;28;70820;-34
2022/08/21 05:39:37;;;;;;;;;;;;;;;32.07;69.57;100521.47;5029467;28;66222;-33
2022/08/21 05:42:30;;;;;;;;;;;;;;;31.94;70.01;100528.78;5080563;28;70961;-34
2022/08/21 05:45:02;;;;;;;;;;;;;;;31.89;70.68;100525.09;5081177;27;66989;-34
2022/08/21 05:47:35;;;;;;;;;;;;;;;31.78;69.52;100514.00;5062021;28;71066;-34
2022/08/21 05:50:08;;;;;;;;;;;;;;;31.64;68.48;100503.63;5077616;28;67381;-34
2022/08/21 05:52:40;;;;;;;;;;;;;;;31.52;67.62;100498.19;5077355;28;71156;-34
2022/08/21 05:55:12;;;;;;;;;;;;;;;31.44;66.73;100496.66;5078278;28;66468;-34
2022/08/21 05:57:45;;;;;;;;;;;;;;;31.34;66.23;100489.06;5060627;28;71044;-35
2022/08/21 06:00:22;;;;;;;;;;;;;;;31.28;64.89;100470.19;5078850;28;66278;-35
2022/08/21 06:02:55;;;;;;;;;;;;;;;31.22;63.81;100465.72;5077075;27;71024;-35
2022/08/21 06:05:27;;;;;;;;;;;;;;;31.01;63.08;100438.13;5062733;28;67326;-35
2022/08/21 06:08:07;;;;;;;;;;;;;;;31.12;62.82;100450.84;5080997;28;70690;-34
2022/08/21 06:10:39;;;;;;;;;;;;;;;31.09;62.90;100443.19;5081771;28;66397;-34
2022/08/21 06:13:11;;;;;;;;;;;;;;;31.07;62.56;100448.00;5080331;28;70835;-34
2022/08/21 06:15:43;;;;;;;;;;;;;;;31.03;62.21;100454.94;5080635;28;66269;-33
2022/08/21 06:18:15;;;;;;;;;;;;;;;30.54;62.68;100389.19;5079864;28;71129;-32
2022/08/21 06:20:47;;;;;;;;;;;;;;;30.99;62.31;100464.59;5075767;28;67086;-32
2022/08/21 06:23:20;;;;;;;;;;;;;;;30.98;62.24;100454.84;5074904;27;70315;-33
2022/08/21 06:26:02;;;;;;;;;;;;;;;30.94;61.71;100456.34;5076364;28;66369;-32
2022/08/21 06:28:35;;;;;;;;;;;;;;;30.93;61.01;100457.41;5076029;28;70829;-33
2022/08/21 06:31:26;;;;;;;;;;;;;;;30.93;63.12;100468.22;5075870;27;67117;-33
2022/08/21 06:33:58;;;;;;;;;;;;;;;30.90;63.57;100463.28;5055775;28;70648;-33
2022/08/21 06:36:30;;;;;;;;;;;;;;;30.89;61.96;100464.31;5079244;28;66550;-33
2022/08/21 06:39:03;;;;;;;;;;;;;;;30.85;61.45;100452.31;5062527;28;71395;-34
2022/08/21 06:41:54;;;;;;;;;;;;;;;30.84;60.57;100453.34;5061334;28;66382;-34
2022/08/21 06:44:31;;;;;;;;;;;;;;;30.80;60.15;100463.00;5080705;27;69583;-33
2022/08/21 06:47:03;;;;;;;;;;;;;;;30.76;59.33;100456.34;5062456;28;66886;-34
2022/08/21 06:49:35;;;;;;;;;;;;;;;30.72;59.24;100456.81;5079318;27;71112;-33
2022/08/21 06:52:11;;;;;;;;;;;;;;;30.75;59.27;100457.41;5080771;27;66322;-34
2022/08/21 06:54:43;;;;;;;;;;;;;;;30.75;58.74;100457.41;5079225;27;70807;-34
2022/08/21 06:57:15;;;;;;;;;;;;;;;30.72;57.72;100456.00;5062827;28;67454;-34
2022/08/21 06:59:47;;;;;;;;;;;;;;;30.70;57.71;100455.38;5063719;28;70538;-36
2022/08/21 07:02:19;;;;;;;;;;;;;;;30.69;57.15;100445.63;5061664;28;66363;-35
2022/08/21 07:04:51;;;;;;;;;;;;;;;30.65;56.97;100445.25;5079842;27;70985;-35
2022/08/21 07:07:23;;;;;;;;;;;;;;;30.68;56.33;100450.22;5080632;28;67316;-34
2022/08/21 07:09:55;;;;;;;;;;;;;;;30.68;55.99;100436.69;5077477;28;70351;-34
2022/08/21 07:12:28;;;;;;;;;;;;;;;30.68;55.91;100431.25;5080078;27;66205;-35
2022/08/21 07:14:59;;;;;;;;;;;;;;;30.69;55.44;100435.59;5075246;28;71079;-33
2022/08/21 07:17:31;;;;;;;;;;;;;;;30.67;55.32;100435.03;5076103;28;67617;-36
2022/08/21 07:20:05;;;;;;;;;;;;;;;30.66;54.86;100446.91;5075625;28;69996;-35
2022/08/21 07:22:38;;;;;;;;;;;;;;;30.64;54.30;100448.19;5076033;28;67278;-34
2022/08/21 07:25:10;;;;;;;;;;;;;;;30.63;54.30;100441.94;5076151;28;70889;-33
2022/08/21 07:27:43;;;;;;;;;;;;;;;30.64;54.13;100430.06;5079755;27;66782;-33
2022/08/21 07:30:15;;;;;;;;;;;;;;;30.62;53.65;100429.47;5078007;28;70805;-34
2022/08/21 07:32:50;;;;;;;;;;;;;;;30.62;53.57;100426.78;5071444;28;66867;-33
2022/08/21 07:35:23;;;;;;;;;;;;;;;30.63;53.24;100433.81;5078065;28;69363;-33
2022/08/21 07:37:55;;;;;;;;;;;;;;;30.58;53.75;100428.25;5079816;28;66553;-33
2022/08/21 07:40:28;;;;;;;;;;;;;;;30.62;56.82;100423.22;5062238;28;70742;-33
2022/08/21 07:43:00;;;;;;;;;;;;;;;30.65;60.04;100434.44;5060719;27;67060;-33
2022/08/21 07:45:32;;;;;;;;;;;;;;;30.69;59.61;100440.19;5062161;28;69477;-33
2022/08/21 07:48:04;;;;;;;;;;;;;;;30.66;58.92;100429.84;5080211;28;67528;-32
2022/08/21 07:50:37;;;;;;;;;;;;;;;30.63;57.83;100433.00;5079284;27;71248;-34
2022/08/21 07:53:09;;;;;;;;;;;;;;;30.59;56.66;100440.78;5079988;28;66035;-34
2022/08/21 07:55:41;;;;;;;;;;;;;;;30.58;56.16;100449.09;5079592;27;71011;-32
2022/08/21 07:58:14;;;;;;;;;;;;;;;30.57;55.88;100437.44;5080089;27;66726;-34
2022/08/21 08:00:46;;;;;;;;;;;;;;;30.53;55.22;100436.25;5079416;28;70383;-34
2022/08/21 08:03:18;;;;;;;;;;;;;;;30.51;54.43;100427.56;5079013;28;66296;-34
2022/08/21 08:05:58;;;;;;;;;;;;;;;30.48;54.21;100428.00;5080532;28;70922;-34
2022/08/21 08:08:31;;;;;;;;;;;;;;;30.46;53.93;100420.09;5080934;28;67066;-33
2022/08/21 08:11:04;;;;;;;;;;;;;;;30.45;53.54;100423.03;5083666;28;69816;-34
2022/08/21 08:13:41;;;;;;;;;;;;;;;30.45;53.37;100417.59;5084627;28;67346;-34
2022/08/21 08:16:13;;;;;;;;;;;;;;;30.41;52.74;100427.25;5082470;28;70675;-34
2022/08/21 08:18:46;;;;;;;;;;;;;;;30.36;52.33;100435.22;5084402;28;66622;-33
2022/08/21 08:21:20;;;;;;;;;;;;;;;30.35;51.91;100434.41;5067544;28;70895;-34
2022/08/21 08:23:53;;;;;;;;;;;;;;;30.35;51.59;100436.28;5079861;28;67149;-32
2022/08/21 08:26:25;;;;;;;;;;;;;;;30.36;51.28;100424.41;5074244;27;70909;-33
2022/08/21 08:28:57;;;;;;;;;;;;;;;30.34;51.12;100418.38;5081829;27;66317;-33
2022/08/21 08:31:30;;;;;;;;;;;;;;;30.31;51.06;100411.53;5083538;27;70903;-34
2022/08/21 08:34:02;;;;;;;;;;;;;;;30.26;50.59;100396.00;5045486;27;66156;-33
2022/08/21 08:36:35;;;;;;;;;;;;;;;30.25;50.91;100385.41;5083146;28;72001;-34
2022/08/21 08:39:10;;;;;;;;;;;;;;;30.24;50.56;100387.28;5081542;28;67291;-35
2022/08/21 08:42:03;;;;;;;;;;;;;;;30.23;50.30;100388.34;5083043;27;70938;-34
2022/08/21 08:45:18;;;;;;;;;;;;;;;30.23;49.77;100404.59;5082516;28;67485;-34
2022/08/21 08:47:57;;;;;;;;;;;;;;;30.20;50.10;100398.75;5080161;28;71502;-33
2022/08/21 08:50:45;;;;;;;;;;;;;;;30.19;49.73;100408.75;5083161;28;67296;-33
2022/08/21 08:53:24;;;;;;;;;;;;;;;30.18;49.68;100396.28;5079848;28;70887;-34
2022/08/21 08:55:56;;;;;;;;;;;;;;;30.17;49.22;100396.50;5082418;28;67300;-33
2022/08/21 08:58:34;;;;;;;;;;;;;;;30.13;49.50;100393.44;5082054;27;70197;-33
2022/08/21 09:01:12;;;;;;;;;;;;;;;30.13;48.90;100401.56;5081810;27;66950;-33
2022/08/21 09:03:49;;;;;;;;;;;;;;;30.11;48.88;100405.53;5081889;28;70181;-34
2022/08/21 09:06:27;;;;;;;;;;;;;;;30.09;48.93;100404.94;5081438;28;67353;-33
2022/08/21 09:08:59;;;;;;;;;;;;;;;30.09;48.26;100405.78;5081800;28;71226;-33
2022/08/21 09:11:37;;;;;;;;;;;;;;;30.07;48.66;100421.41;5081951;28;66752;-33
2022/08/21 09:14:29;;;;;;;;;;;;;;;30.08;48.57;100416.81;5080607;27;71037;-33
2022/08/21 09:17:11;;;;;;;;;;;;;;;30.05;48.13;100412.69;5073813;28;67524;-33
2022/08/21 09:19:58;;;;;;;;;;;;;;;30.04;47.94;100411.03;5078075;28;70978;-32
2022/08/21 09:22:49;;;;;;;;;;;;;;;30.04;47.82;100405.63;5063000;28;67112;-33
2022/08/21 09:25:22;;;;;;;;;;;;;;;30.02;47.65;100399.59;5064277;28;70049;-33
2022/08/21 09:27:54;;;;;;;;;;;;;;;30.01;47.66;100411.50;5082396;28;67236;-33
2022/08/21 09:30:30;;;;;;;;;;;;;;;30.00;47.63;100421.44;5081766;27;70668;-32
2022/08/21 09:33:02;;;;;;;;;;;;;;;29.98;47.78;100423.59;5080288;27;66317;-32
2022/08/21 09:35:36;;;;;;;;;;;;;;;29.99;47.60;100440.63;5082017;27;70307;-33
2022/08/21 09:38:09;;;;;;;;;;;;;;;29.97;47.99;100453.53;5083556;27;67536;-33
2022/08/21 09:40:43;;;;;;;;;;;;;;;29.96;48.27;100457.31;5080495;28;70449;-36
2022/08/21 09:43:18;;;;;;;;;;;;;;;29.93;47.79;100468.56;5081804;27;67326;-33
2022/08/21 09:46:01;;;;;;;;;;;;;;;29.93;47.73;100473.97;5078892;28;70779;-33
2022/08/21 09:48:45;;;;;;;;;;;;;;;29.92;47.94;100478.56;5079692;28;67106;-33
2022/08/21 09:51:25;;;;;;;;;;;;;;;30.12;48.87;100486.47;5075251;28;43320;-33
2022/08/21 09:54:07;;;;;;;;;;;;;;;30.38;51.36;100484.53;5081483;28;67358;-32
2022/08/21 09:59:43;;;;;;;;;;;;;;;30.84;56.99;100475.00;5060962;28;67213;-33
2022/08/21 10:02:29;;;;;;;;;;;;;;;30.98;57.49;100481.91;5077480;27;70685;-33
2022/08/21 10:05:07;;;;;;;;;;;;;;;31.11;57.27;100492.53;5080449;28;67347;-32
2022/08/21 10:07:39;;;;;;;;;;;;;;;31.24;57.92;100491.53;5080905;28;70739;-33
2022/08/21 10:10:17;;;;;;;;;;;;;;;31.33;58.45;100489.28;5081484;28;66790;-34
2022/08/21 10:13:03;;;;;;;;;;;;;;;31.42;58.60;100497.94;5081126;27;70226;-32
2022/08/21 10:15:38;;;;;;;;;;;;;;;31.51;59.36;100505.50;5080481;28;66737;-36
2022/08/21 10:18:26;;;;;;;;;;;;;;;31.58;59.44;100499.97;5081382;27;70043;-34
2022/08/21 10:21:16;;;;;;;;;;;;;;;31.66;60.39;100505.03;5082000;28;67383;-32
2022/08/21 10:23:51;;;;;;;;;;;;;;;31.68;63.34;100521.06;5080744;28;71046;-34
2022/08/21 10:26:23;;;;;;;;;;;;;;;31.52;66.42;100506.34;5079559;28;67483;-33
2022/08/21 10:29:02;;;;;;;;;;;;;;;31.43;67.46;100513.97;5063564;28;70858;-35
2022/08/21 10:31:53;;;;;;;;;;;;;;;31.37;68.36;100506.75;5060769;28;67464;-34
2022/08/21 10:34:31;;;;;;;;;;;;;;;31.33;68.97;100522.63;5076020;28;70374;-33
2022/08/21 10:37:15;;;;;;;;;;;;;;;31.29;69.54;100520.63;5077320;28;66194;-33
2022/08/21 10:39:47;;;;;;;;;;;;;;;31.28;70.14;100524.38;5072827;28;71119;-33
2022/08/21 10:42:42;;;;;;;;;;;;;;;31.27;70.73;100525.47;5074645;28;66673;-34
2022/08/21 10:45:36;;;;;;;;;;;;;;;31.26;70.77;100537.34;5075309;28;69998;-34
2022/08/21 10:48:16;;;;;;;;;;;;;;;31.26;71.41;100548.19;5077935;28;67507;-33
2022/08/21 10:51:04;;;;;;;;;;;;;;;31.32;71.31;100558.13;5079248;28;70811;-33
2022/08/21 10:53:41;;;;;;;;;;;;;;;31.46;70.00;100553.34;5081167;27;67084;-33
2022/08/21 10:56:17;;;;;;;;;;;;;;;31.58;69.12;100568.56;5080063;28;70825;-34
2022/08/21 10:58:59;;;;;;;;;;;;;;;31.69;69.28;100564.22;5059591;28;67441;-33
2022/08/21 11:01:55;;;;;;;;;;;;;;;31.80;68.86;100570.75;5075741;28;70469;-34
2022/08/21 11:04:27;;;;;;;;;;;;;;;31.89;67.96;100563.91;5040353;28;67067;-33
2022/08/21 11:07:20;;;;;;;;;;;;;;;31.96;68.33;100575.50;5064759;28;70398;-33
2022/08/21 11:09:55;;;;;;;;;;;;;;;32.02;68.35;100569.13;5077798;28;67011;-34
2022/08/21 11:12:34;;;;;;;;;;;;;;;32.05;68.13;100571.38;5077747;28;70869;-34
2022/08/21 11:15:15;;;;;;;;;;;;;;;31.98;70.06;100561.69;5076789;28;67208;-37
2022/08/21 11:18:25;;;;;;;;;;;;;;;31.82;71.49;100557.78;5066180;27;70846;-34
2022/08/21 11:21:16;;;;;;;;;;;;;;;31.72;72.40;100573.78;5076767;28;67319;-33
2022/08/21 11:23:53;;;;;;;;;;;;;;;31.60;72.98;100577.31;5041677;28;69890;-33
2022/08/21 11:26:31;;;;;;;;;;;;;;;31.54;72.98;100583.66;5077878;28;66862;-33
2022/08/21 11:29:22;;;;;;;;;;;;;;;31.52;73.46;100579.53;5071312;27;70056;-33
2022/08/21 11:32:25;;;;;;;;;;;;;;;31.46;73.70;100575.84;5075100;28;65979;-33
2022/08/21 11:34:58;;;;;;;;;;;;;;;31.48;74.20;100573.75;5050282;28;70855;-33
2022/08/21 11:37:36;;;;;;;;;;;;;;;31.43;74.22;100565.47;5077166;28;65507;-33
2022/08/21 11:40:25;;;;;;;;;;;;;;;31.41;74.54;100564.88;5080069;27;70700;-33
2022/08/21 11:43:12;;;;;;;;;;;;;;;31.39;74.32;100569.69;5066962;27;66458;-34
2022/08/21 11:45:47;;;;;;;;;;;;;;;31.44;74.57;100560.88;5077889;28;71167;-34
2022/08/21 11:48:19;;;;;;;;;;;;;;;31.57;73.16;100576.94;5085521;27;67126;-33
2022/08/21 11:50:52;;;;;;;;;;;;;;;31.67;72.43;100579.09;5080400;27;70223;-34
2022/08/21 11:53:31;;;;;;;;;;;;;;;31.74;72.12;100577.91;5080127;27;66463;-35
2022/08/21 11:56:10;;;;;;;;;;;;;;;31.85;71.73;100584.44;5065830;27;69813;-34
2022/08/21 11:58:53;;;;;;;;;;;;;;;31.91;71.63;100591.66;5030400;28;66340;-34
2022/08/21 12:01:33;;;;;;;;;;;;;;;31.98;71.00;100605.09;5076641;28;70209;-32
2022/08/21 12:04:16;;;;;;;;;;;;;;;32.02;71.15;100606.28;5053504;28;67448;-34
2022/08/21 12:06:49;;;;;;;;;;;;;;;32.07;70.52;100608.28;5069028;28;70911;-34
2022/08/21 12:09:24;;;;;;;;;;;;;;;32.11;70.26;100593.19;5080189;28;67308;-34
2022/08/21 12:12:05;;;;;;;;;;;;;;;32.13;70.33;100596.50;5080779;28;71054;-33
2022/08/21 12:14:47;;;;;;;;;;;;;;;32.16;70.37;100602.28;5080184;27;66967;-34
2022/08/21 12:17:20;;;;;;;;;;;;;;;32.18;69.97;100610.16;5080875;28;70781;-33
2022/08/21 12:20:15;;;;;;;;;;;;;;;32.20;69.88;100613.50;5080125;28;67437;-35
2022/08/21 12:23:05;;;;;;;;;;;;;;;32.22;70.07;100627.66;5067680;27;70332;-34
2022/08/21 12:25:44;;;;;;;;;;;;;;;32.22;69.84;100633.91;5079810;27;66341;-34
2022/08/21 12:28:22;;;;;;;;;;;;;;;32.21;70.02;100631.44;5080058;27;70589;-34
2022/08/21 12:30:54;;;;;;;;;;;;;;;31.95;72.10;100641.66;5078057;28;66327;-33
2022/08/21 12:33:39;;;;;;;;;;;;;;;31.77;73.12;100642.53;5078441;28;70653;-33
2022/08/21 12:36:12;;;;;;;;;;;;;;;31.56;73.44;100643.88;5054566;28;67248;-33
2022/08/21 12:38:48;;;;;;;;;;;;;;;31.47;73.70;100647.97;5073547;28;70621;-32
2022/08/21 12:41:33;;;;;;;;;;;;;;;31.35;73.94;100652.50;5078492;27;66109;-32
2022/08/21 12:44:09;;;;;;;;;;;;;;;31.30;74.65;100644.22;5077177;28;71306;-32
2022/08/21 12:46:48;;;;;;;;;;;;;;;31.28;75.11;100644.44;5077900;28;66754;-34
2022/08/21 12:49:20;;;;;;;;;;;;;;;31.27;75.30;100647.41;5078400;28;69215;-32
2022/08/21 12:52:14;;;;;;;;;;;;;;;31.25;74.94;100646.81;5078136;28;66375;-32
2022/08/21 12:54:46;;;;;;;;;;;;;;;31.26;75.11;100651.16;5074274;27;70805;-33
2022/08/21 12:57:28;;;;;;;;;;;;;;;31.27;75.00;100642.00;5075604;27;67066;-34
2022/08/21 13:00:02;;;;;;;;;;;;;;;31.24;75.12;100642.44;5059286;27;71802;-35
2022/08/21 13:02:42;;;;;;;;;;;;;;;31.24;75.27;100645.97;5077195;28;65972;-37
2022/08/21 13:05:17;;;;;;;;;;;;;;;31.23;75.33;100651.59;5076304;27;70842;-33
2022/08/21 13:07:50;;;;;;;;;;;;;;;31.25;75.90;100660.34;5077562;27;66364;-34
2022/08/21 13:10:23;;;;;;;;;;;;;;;31.25;75.90;100676.59;5075098;27;71152;-33
2022/08/21 13:12:57;;;;;;;;;;;;;;;31.24;76.01;100680.38;5077253;28;66040;-33
2022/08/21 13:15:32;;;;;;;;;;;;;;;31.26;75.98;100691.81;5047533;28;70703;-33
2022/08/21 13:18:05;;;;;;;;;;;;;;;31.24;76.01;100683.09;5077335;27;66909;-33
2022/08/21 13:20:42;;;;;;;;;;;;;;;31.24;75.92;100697.47;5044673;28;69914;-31
2022/08/21 13:23:28;;;;;;;;;;;;;;;31.23;75.72;100705.81;5051271;28;65967;-32